Easton, New York
Current Conditions -  °F | °C
As of 1:51 PM on Monday 20 Oct 2014 (Local Time) from KALB Reporting Station
Broken Clouds Broken Clouds  
Wind Chill: 52°   Ceiling: 14000
Heat Index: 52°   Visibility: 10mi
Dew Point: 34°   Wind: 14mph
Humidity: 50%   Direction: 180°S
Pressure: 29.96"   Gusts: NA
Location:  42.934°N, 73.6082°W
Report Text: KALB 201751Z 18012KT 10SM FEW100 BKN140 BKN200 11/01 A2996 RMK AO2 SLP148 T01110011 10117 20022 56030
Loading
Personal Weather Stations






























Interactive Weather Map
Tropical Storm Tracking
New forecast layout! Learn more

10-Day Weather Forecast

Advertisements
Track Severe Weather on mobile